createdAt,value
2018-08-14T00:00:11.118Z,7.90
2018-08-14T00:05:14.849Z,8.33
2018-08-14T00:10:18.538Z,8.80
2018-08-14T00:15:22.251Z,8.30
2018-08-14T00:20:25.956Z,9.17
2018-08-14T00:25:29.710Z,8.30
2018-08-14T00:30:33.765Z,8.77
2018-08-14T00:35:37.540Z,9.57
2018-08-14T00:40:41.218Z,8.63
2018-08-14T00:45:44.960Z,8.70
2018-08-14T00:50:48.680Z,9.03
2018-08-14T00:55:52.959Z,9.30
2018-08-14T01:00:56.697Z,9.43
2018-08-14T01:06:00.363Z,9.90
2018-08-14T01:11:04.073Z,9.80
2018-08-14T01:16:07.796Z,9.80
2018-08-14T01:21:11.450Z,10.37
2018-08-14T01:26:15.125Z,10.97
2018-08-14T01:31:18.746Z,10.27
2018-08-14T01:36:22.380Z,10.57
2018-08-14T01:41:26.119Z,10.40
2018-08-14T01:46:29.799Z,10.83
2018-08-14T01:51:33.482Z,12.10
2018-08-14T01:56:37.437Z,12.20
2018-08-14T02:01:41.092Z,12.77
2018-08-14T02:06:44.793Z,12.77
2018-08-14T02:11:48.421Z,12.47
2018-08-14T02:16:52.116Z,13.00
2018-08-14T02:21:56.041Z,12.57
2018-08-14T02:26:59.669Z,13.07
2018-08-14T02:32:03.463Z,13.20
2018-08-14T02:37:07.210Z,14.60
2018-08-14T02:42:10.881Z,14.17
2018-08-14T02:47:14.528Z,16.47
2018-08-14T02:52:18.214Z,16.67
2018-08-14T02:57:21.886Z,19.73
2018-08-14T03:02:25.561Z,21.07
2018-08-14T03:07:29.231Z,22.90
2018-08-14T03:12:32.897Z,23.00
2018-08-14T03:17:36.623Z,23.43
2018-08-14T03:22:40.288Z,22.97
2018-08-14T03:27:44.024Z,24.50
2018-08-14T03:32:47.755Z,23.13
2018-08-14T03:37:51.404Z,23.00
2018-08-14T03:42:55.048Z,21.80
2018-08-14T03:47:58.693Z,22.53
2018-08-14T03:53:02.576Z,23.03
2018-08-14T03:58:06.531Z,24.00
2018-08-14T04:03:10.202Z,23.63
2018-08-14T04:08:13.895Z,26.50
2018-08-14T04:13:17.632Z,27.37
2018-08-14T04:18:22.062Z,27.37
2018-08-14T04:23:25.830Z,28.53
2018-08-14T04:28:29.585Z,28.20
2018-08-14T04:33:33.428Z,29.30
2018-08-14T04:38:37.320Z,30.13
2018-08-14T04:43:41.105Z,30.17
2018-08-14T04:48:44.986Z,31.77
2018-08-14T04:53:48.767Z,30.80
2018-08-14T04:58:52.494Z,30.47
2018-08-14T05:03:56.198Z,31.70
2018-08-14T05:09:00.086Z,31.07
2018-08-14T05:14:03.694Z,33.70
2018-08-14T05:19:07.545Z,32.97
2018-08-14T05:24:11.432Z,34.73
2018-08-14T05:29:15.203Z,37.33
2018-08-14T05:34:18.928Z,40.60
2018-08-14T05:39:22.652Z,43.87
2018-08-14T05:44:26.615Z,47.33
2018-08-14T05:49:30.365Z,45.30
2018-08-14T05:54:34.157Z,46.47
2018-08-14T05:59:37.905Z,42.93
2018-08-14T06:04:41.585Z,43.10
2018-08-14T06:09:45.329Z,41.57
2018-08-14T06:14:49.079Z,43.37
2018-08-14T06:19:52.823Z,39.97
2018-08-14T06:24:56.529Z,40.27
2018-08-14T06:30:00.633Z,36.30
2018-08-14T06:35:05.157Z,35.87
2018-08-14T06:40:12.343Z,36.00
2018-08-14T06:45:17.684Z,36.63
2018-08-14T06:50:22.080Z,32.23
2018-08-14T06:55:25.931Z,32.80
2018-08-14T07:00:29.745Z,31.67
2018-08-14T07:05:33.607Z,32.40
2018-08-14T07:10:37.451Z,33.00
2018-08-14T07:15:41.234Z,34.17
2018-08-14T07:20:45.097Z,32.43
2018-08-14T07:25:48.963Z,38.73
2018-08-14T07:30:52.729Z,37.60
2018-08-14T07:35:56.983Z,40.23
2018-08-14T07:41:01.048Z,39.23
2018-08-14T07:46:04.672Z,39.63
2018-08-14T07:51:08.408Z,38.20
2018-08-14T07:56:12.273Z,36.33
2018-08-14T08:01:15.969Z,39.57
2018-08-14T08:06:19.695Z,39.77
2018-08-14T08:11:23.462Z,41.53
2018-08-14T08:16:27.246Z,38.40
2018-08-14T08:21:30.888Z,40.67
2018-08-14T08:26:34.614Z,35.73
2018-08-14T08:31:38.352Z,43.23
2018-08-14T08:36:42.067Z,38.17
2018-08-14T08:41:45.761Z,35.83
2018-08-14T08:46:49.451Z,38.40
2018-08-14T08:51:53.218Z,40.33
2018-08-14T08:56:57.096Z,29.97
2018-08-14T09:02:01.620Z,29.00
2018-08-14T09:07:06.112Z,34.93
2018-08-14T09:12:09.854Z,33.07
2018-08-14T09:17:13.616Z,30.30
2018-08-14T09:22:17.342Z,27.37
2018-08-14T09:27:21.628Z,25.20
2018-08-14T09:32:25.453Z,22.13
2018-08-14T09:37:29.299Z,22.50
2018-08-14T09:42:33.084Z,24.77
2018-08-14T09:47:37.124Z,26.00
2018-08-14T09:52:40.983Z,23.93
2018-08-14T09:57:45.311Z,26.87
2018-08-14T10:02:53.256Z,27.17
2018-08-14T10:08:02.437Z,25.87
2018-08-14T10:13:07.636Z,20.30
2018-08-14T10:18:27.874Z,18.13
2018-08-14T10:23:31.707Z,15.00
2018-08-14T10:28:35.618Z,13.57
2018-08-14T10:33:39.282Z,12.37
2018-08-14T10:38:43.619Z,11.37
2018-08-14T10:43:47.300Z,7.47
2018-08-14T10:48:51.019Z,4.30
2018-08-14T10:53:54.748Z,3.80
2018-08-14T10:58:58.446Z,3.90
2018-08-14T11:04:02.180Z,2.97
2018-08-14T11:09:07.334Z,2.77
2018-08-14T11:14:15.560Z,3.07
2018-08-14T11:19:19.896Z,3.47
2018-08-14T11:24:23.591Z,2.10
2018-08-14T11:29:27.295Z,2.37
2018-08-14T11:34:31.146Z,1.73
2018-08-14T11:39:34.925Z,1.50
2018-08-14T11:44:38.686Z,1.63
2018-08-14T11:49:43.205Z,1.70
2018-08-14T11:54:47.357Z,1.37
2018-08-14T11:59:51.044Z,1.40
2018-08-14T12:04:55.245Z,1.10
2018-08-14T12:09:59.015Z,1.40
2018-08-14T12:15:02.957Z,1.17
2018-08-14T12:20:08.055Z,1.30
2018-08-14T12:25:13.309Z,1.57
2018-08-14T12:30:20.319Z,1.93
2018-08-14T12:35:26.433Z,1.87
2018-08-14T12:40:30.241Z,1.87
2018-08-14T12:45:33.898Z,1.60
2018-08-14T12:50:37.624Z,2.03
2018-08-14T12:55:41.554Z,1.60
2018-08-14T13:00:45.824Z,1.67
2018-08-14T13:05:49.506Z,1.97
2018-08-14T13:10:53.199Z,2.00
2018-08-14T13:15:56.879Z,1.77
2018-08-14T13:21:00.605Z,1.90
2018-08-14T13:26:04.603Z,1.83
2018-08-14T13:31:08.419Z,1.40
2018-08-14T13:36:12.054Z,1.40
2018-08-14T13:41:15.973Z,1.70
2018-08-14T13:46:19.843Z,1.57
2018-08-14T13:51:23.537Z,1.63
2018-08-14T13:56:27.270Z,1.50
2018-08-14T14:01:30.929Z,1.00
2018-08-14T14:06:34.611Z,1.40
2018-08-14T14:11:38.363Z,1.50
2018-08-14T14:16:42.052Z,1.80
2018-08-14T14:21:45.709Z,1.83
2018-08-14T14:26:49.418Z,1.30
2018-08-14T14:31:53.100Z,1.57
2018-08-14T14:36:56.767Z,1.20
2018-08-14T14:42:00.533Z,1.53
2018-08-14T14:47:04.288Z,1.67
2018-08-14T14:52:07.938Z,1.63
2018-08-14T14:57:11.648Z,1.70
2018-08-14T15:02:15.241Z,1.30
2018-08-14T15:07:18.873Z,1.60
2018-08-14T15:12:22.688Z,1.60
2018-08-14T15:17:26.354Z,1.53
2018-08-14T15:22:30.055Z,1.43
2018-08-14T15:27:33.730Z,1.30
2018-08-14T15:32:37.410Z,1.27
2018-08-14T15:37:41.074Z,1.20
2018-08-14T15:42:44.740Z,1.30
2018-08-14T15:47:48.390Z,1.50
2018-08-14T15:52:52.117Z,1.60
2018-08-14T15:57:55.765Z,1.20
2018-08-14T16:02:59.415Z,1.43
2018-08-14T16:08:03.094Z,1.20
2018-08-14T16:13:06.760Z,1.17
2018-08-14T16:18:10.439Z,1.00
2018-08-14T16:23:14.136Z,1.20
2018-08-14T16:28:17.783Z,1.47
2018-08-14T16:33:21.467Z,1.40
2018-08-14T16:38:25.113Z,1.30
2018-08-14T16:43:28.778Z,1.40
2018-08-14T16:48:32.458Z,1.60
2018-08-14T16:53:36.099Z,1.60
2018-08-14T16:58:39.793Z,1.33
2018-08-14T17:03:43.481Z,1.60
2018-08-14T17:08:47.461Z,1.70
2018-08-14T17:13:51.171Z,1.27
2018-08-14T17:18:54.822Z,1.57
2018-08-14T17:23:58.490Z,1.67
2018-08-14T17:29:02.142Z,1.40
2018-08-14T17:34:05.844Z,1.40
2018-08-14T17:39:09.738Z,1.40
2018-08-14T17:44:14.225Z,1.50
2018-08-14T17:49:17.907Z,1.00
2018-08-14T17:54:21.584Z,1.63
2018-08-14T17:59:25.293Z,1.23
2018-08-14T18:04:29.008Z,1.70
2018-08-14T18:09:32.669Z,1.13
2018-08-14T18:14:36.318Z,1.50
2018-08-14T18:19:39.968Z,1.30
2018-08-14T18:24:43.619Z,1.27
2018-08-14T18:29:47.282Z,1.47
2018-08-14T18:34:50.947Z,1.80
2018-08-14T18:39:54.921Z,1.47
2018-08-14T18:44:58.607Z,1.33
2018-08-14T18:50:02.340Z,1.57
2018-08-14T18:55:06.760Z,1.50
2018-08-14T19:00:18.376Z,1.60
2018-08-14T19:05:22.644Z,1.90
2018-08-14T19:10:26.981Z,1.93
2018-08-14T19:15:36.076Z,1.50
2018-08-14T19:20:40.075Z,1.70
2018-08-14T19:25:43.770Z,2.50
2018-08-14T19:30:47.490Z,2.30
2018-08-14T19:35:51.115Z,2.07
2018-08-14T19:40:54.790Z,2.43
2018-08-14T19:45:58.415Z,1.83
2018-08-14T19:51:02.076Z,1.60
2018-08-14T19:56:05.798Z,1.83
2018-08-14T20:01:09.477Z,1.50
2018-08-14T20:06:13.172Z,1.80
2018-08-14T20:11:16.844Z,1.50
2018-08-14T20:16:20.520Z,1.83
2018-08-14T20:21:24.172Z,1.63
2018-08-14T20:26:27.859Z,2.10
2018-08-14T20:31:31.733Z,2.07
2018-08-14T20:36:35.412Z,1.97
2018-08-14T20:41:39.047Z,2.10
2018-08-14T20:46:42.700Z,1.80
2018-08-14T20:51:46.405Z,2.10
2018-08-14T20:56:50.105Z,1.70
2018-08-14T21:01:53.765Z,2.00
2018-08-14T21:06:57.444Z,2.00
2018-08-14T21:12:01.078Z,1.53
2018-08-14T21:17:05.318Z,1.97
2018-08-14T21:22:08.962Z,1.80
2018-08-14T21:27:12.612Z,1.80
2018-08-14T21:32:16.283Z,2.10
2018-08-14T21:37:19.911Z,2.00
2018-08-14T21:42:23.559Z,1.70
2018-08-14T21:47:27.239Z,2.10
2018-08-14T21:52:30.948Z,1.90
2018-08-14T21:57:34.628Z,2.13
2018-08-14T22:02:38.325Z,1.97
2018-08-14T22:07:42.301Z,2.60
2018-08-14T22:12:45.987Z,1.50
2018-08-14T22:17:49.705Z,1.57
2018-08-14T22:22:53.390Z,1.60
2018-08-14T22:27:57.034Z,1.60
2018-08-14T22:33:00.703Z,1.60
2018-08-14T22:38:04.481Z,2.03
2018-08-14T22:43:08.251Z,1.40
2018-08-14T22:48:11.946Z,1.80
2018-08-14T22:53:15.579Z,1.90
2018-08-14T22:58:19.259Z,1.73
2018-08-14T23:03:22.927Z,2.00
2018-08-14T23:08:26.587Z,2.20
2018-08-14T23:13:31.211Z,1.90
2018-08-14T23:18:36.304Z,2.30
2018-08-14T23:23:39.966Z,1.73
2018-08-14T23:28:43.646Z,1.97
2018-08-14T23:33:47.332Z,1.80
2018-08-14T23:38:51.005Z,1.83
2018-08-14T23:43:54.654Z,1.90
2018-08-14T23:48:58.363Z,1.90
2018-08-14T23:54:02.030Z,2.10
2018-08-14T23:59:05.914Z,1.33
